createdAt,value
2018-06-22T00:07:46.461Z,18.29
2018-06-22T00:10:18.963Z,18.16
2018-06-22T00:12:52.914Z,18.09
2018-06-22T00:15:23.835Z,18.04
2018-06-22T00:17:56.100Z,17.96
2018-06-22T00:23:06.488Z,17.85
2018-06-22T00:25:36.645Z,17.74
2018-06-22T00:28:05.749Z,17.73
2018-06-22T00:33:16.403Z,17.62
2018-06-22T00:37:59.570Z,17.51
2018-06-22T00:41:04.091Z,17.35
2018-06-22T00:47:31.437Z,17.12
2018-06-22T00:50:13.269Z,17.24
2018-06-22T00:52:51.428Z,17.24
2018-06-22T00:55:26.565Z,17.13
2018-06-22T00:58:00.531Z,17.05
2018-06-22T01:00:36.155Z,17.03
2018-06-22T01:03:15.979Z,16.85
2018-06-22T01:05:47.350Z,16.78
2018-06-22T01:08:21.337Z,16.78
2018-06-22T01:10:52.140Z,16.80
2018-06-22T01:13:24.468Z,16.73
2018-06-22T01:15:57.721Z,16.54
2018-06-22T01:18:32.429Z,16.47
2018-06-22T01:21:08.215Z,16.42
2018-06-22T01:23:41.155Z,16.37
2018-06-22T01:26:12.405Z,16.30
2018-06-22T01:28:47.613Z,16.32
2018-06-22T01:31:17.477Z,16.32
2018-06-22T01:34:11.216Z,16.29
2018-06-22T01:36:40.929Z,16.20
2018-06-22T01:39:15.321Z,16.17
2018-06-22T01:41:46.743Z,16.16
2018-06-22T01:44:31.814Z,16.16
2018-06-22T01:47:04.459Z,16.15
2018-06-22T01:49:34.323Z,16.15
2018-06-22T01:52:03.313Z,16.13
2018-06-22T01:54:34.162Z,16.01
2018-06-22T01:57:04.096Z,15.97
2018-06-22T01:59:39.673Z,16.00
2018-06-22T02:02:20.632Z,16.07
2018-06-22T02:05:01.453Z,16.11
2018-06-22T02:07:33.636Z,16.13
2018-06-22T02:13:00.437Z,16.18
2018-06-22T02:15:35.639Z,16.21
2018-06-22T02:18:04.805Z,16.24
2018-06-22T02:20:34.163Z,16.20
2018-06-22T02:23:04.296Z,16.16
2018-06-22T02:25:33.485Z,16.08
2018-06-22T02:28:04.370Z,16.02
2018-06-22T02:30:44.317Z,15.91
2018-06-22T02:33:17.105Z,15.83
2018-06-22T02:35:49.911Z,15.94
2018-06-22T02:38:18.758Z,15.90
2018-06-22T02:40:49.898Z,15.81
2018-06-22T02:43:18.754Z,15.69
2018-06-22T02:45:48.723Z,15.63
2018-06-22T02:48:22.820Z,15.47
2018-06-22T02:50:53.920Z,15.46
2018-06-22T02:53:25.013Z,15.45
2018-06-22T02:55:54.306Z,15.50
2018-06-22T02:58:24.326Z,15.55
2018-06-22T03:00:53.939Z,15.40
2018-06-22T03:03:31.873Z,15.33
2018-06-22T03:06:04.311Z,15.41
2018-06-22T03:08:36.602Z,15.49
2018-06-22T03:11:05.982Z,15.64
2018-06-22T03:13:38.018Z,15.62
2018-06-22T03:16:13.897Z,15.66
2018-06-22T03:18:45.500Z,15.66
2018-06-22T03:21:23.841Z,15.66
2018-06-22T03:24:00.020Z,15.68
2018-06-22T03:26:29.192Z,15.65
2018-06-22T03:28:58.650Z,15.61
2018-06-22T03:31:31.997Z,15.52
2018-06-22T03:34:07.944Z,15.55
2018-06-22T03:36:37.313Z,15.60
2018-06-22T03:39:13.128Z,15.58
2018-06-22T03:45:17.379Z,15.51
2018-06-22T03:48:04.079Z,15.47
2018-06-22T03:50:41.509Z,15.41
2018-06-22T03:53:22.844Z,15.35
2018-06-22T03:56:03.348Z,15.32
2018-06-22T03:58:34.967Z,15.34
2018-06-22T04:01:09.233Z,15.30
2018-06-22T04:03:43.751Z,15.30
2018-06-22T04:06:22.362Z,15.30
2018-06-22T04:08:58.819Z,15.31
2018-06-22T04:11:35.888Z,15.28
2018-06-22T04:14:18.467Z,15.21
2018-06-22T04:17:07.651Z,15.14
2018-06-22T04:23:47.160Z,14.93
2018-06-22T04:26:24.216Z,14.99
2018-06-22T04:28:59.245Z,15.06
2018-06-22T04:31:34.573Z,15.10
2018-06-22T04:37:05.764Z,15.13
2018-06-22T04:39:47.738Z,15.07
2018-06-22T04:51:44.286Z,14.65
2018-06-22T04:54:56.530Z,14.80
2018-06-22T05:07:43.053Z,14.97
2018-06-22T05:29:48.384Z,14.83
2018-06-22T06:11:35.450Z,15.75
2018-06-22T06:14:04.646Z,15.55
2018-06-22T06:16:33.795Z,15.53
2018-06-22T06:19:02.853Z,15.74
2018-06-22T06:21:31.884Z,15.78
2018-06-22T06:24:00.936Z,15.74
2018-06-22T06:26:30.753Z,15.90
2018-06-22T06:29:15.851Z,16.06
2018-06-22T06:31:45.170Z,16.20
2018-06-22T06:34:15.051Z,16.21
2018-06-22T06:36:44.573Z,16.21
2018-06-22T06:39:14.744Z,16.23
2018-06-22T06:41:44.199Z,16.11
2018-06-22T06:44:13.292Z,16.07
2018-06-22T06:46:42.451Z,16.14
2018-06-22T06:49:14.117Z,16.20
2018-06-22T06:51:43.561Z,16.21
2018-06-22T06:54:14.186Z,16.34
2018-06-22T06:56:43.098Z,16.45
2018-06-22T06:59:12.299Z,16.52
2018-06-22T07:01:42.974Z,16.35
2018-06-22T07:04:11.990Z,16.30
2018-06-22T07:06:46.123Z,16.20
2018-06-22T07:09:15.467Z,16.39
2018-06-22T07:11:51.121Z,16.38
2018-06-22T07:14:21.129Z,16.50
2018-06-22T07:16:50.017Z,16.59
2018-06-22T07:19:19.175Z,16.48
2018-06-22T07:21:51.908Z,16.50
2018-06-22T07:24:20.997Z,16.31
2018-06-22T07:26:50.369Z,16.28
2018-06-22T07:29:32.919Z,16.16
2018-06-22T07:32:07.050Z,16.27
2018-06-22T07:34:39.049Z,16.19
2018-06-22T07:37:11.198Z,16.11
2018-06-22T07:39:40.994Z,16.08
2018-06-22T07:42:09.961Z,15.86
2018-06-22T07:44:59.755Z,15.80
2018-06-22T07:47:30.604Z,15.93
2018-06-22T07:50:00.012Z,15.92
2018-06-22T07:52:31.059Z,15.89
2018-06-22T07:55:03.667Z,15.73
2018-06-22T07:57:34.428Z,15.92
2018-06-22T08:00:10.299Z,16.06
2018-06-22T08:02:43.195Z,16.38
2018-06-22T08:05:29.003Z,16.63
2018-06-22T08:07:58.418Z,16.88
2018-06-22T08:10:30.749Z,16.81
2018-06-22T08:12:59.945Z,17.02
2018-06-22T08:15:54.350Z,17.09
2018-06-22T08:18:36.320Z,17.02
2018-06-22T08:21:05.844Z,17.10
2018-06-22T08:23:56.370Z,16.93
2018-06-22T08:26:31.203Z,16.90
2018-06-22T08:29:51.477Z,16.88
2018-06-22T08:32:25.384Z,16.75
2018-06-22T08:34:55.679Z,16.87
2018-06-22T08:37:29.594Z,16.90
2018-06-22T08:40:02.115Z,16.93
2018-06-22T08:42:40.573Z,16.87
2018-06-22T08:45:26.106Z,16.70
2018-06-22T08:48:00.741Z,16.59
2018-06-22T08:50:50.790Z,16.45
2018-06-22T08:59:09.758Z,16.15
2018-06-22T09:12:01.176Z,17.11
2018-06-22T09:14:40.931Z,16.92
2018-06-22T09:17:45.063Z,16.70
2018-06-22T09:20:18.283Z,16.83
2018-06-22T09:22:50.210Z,16.75
2018-06-22T09:25:39.091Z,16.85
2018-06-22T09:28:20.918Z,17.01
2018-06-22T09:30:52.127Z,17.21
2018-06-22T09:33:33.285Z,17.59
2018-06-22T09:39:08.910Z,17.65
2018-06-22T09:44:41.130Z,18.15
2018-06-22T09:47:31.876Z,18.38
2018-06-22T09:50:09.813Z,18.73
2018-06-22T09:52:40.883Z,18.53
2018-06-22T09:55:12.321Z,18.35
2018-06-22T09:57:56.202Z,18.47
2018-06-22T10:00:28.778Z,18.68
2018-06-22T10:05:56.655Z,18.81
2018-06-22T10:08:28.082Z,18.60
2018-06-22T10:10:58.858Z,18.57
2018-06-22T10:13:31.642Z,18.91
2018-06-22T10:16:00.960Z,18.60
2018-06-22T10:18:34.854Z,18.45
2018-06-22T10:21:22.294Z,18.37
2018-06-22T10:24:13.951Z,18.63
2018-06-22T11:11:08.696Z,19.01
2018-06-22T11:13:44.463Z,19.01
2018-06-22T11:16:22.521Z,18.82
2018-06-22T11:18:56.110Z,18.65
2018-06-22T11:21:47.473Z,18.61
2018-06-22T11:30:23.244Z,18.69
2018-06-22T11:32:55.688Z,18.40
2018-06-22T11:35:28.854Z,18.41
2018-06-22T11:37:58.237Z,18.42
2018-06-22T11:40:30.665Z,18.44
2018-06-22T11:43:01.548Z,18.23
2018-06-22T11:48:24.712Z,18.07
2018-06-22T11:50:53.435Z,17.80
2018-06-22T11:53:23.793Z,17.93
2018-06-22T11:55:54.159Z,17.83
2018-06-22T11:58:31.134Z,17.81
2018-06-22T12:01:00.206Z,17.88
2018-06-22T12:03:29.825Z,17.78
2018-06-22T12:05:59.189Z,17.52
2018-06-22T12:08:29.223Z,17.43
2018-06-22T12:10:58.804Z,17.41
2018-06-22T12:13:45.188Z,17.33
2018-06-22T12:16:17.670Z,17.03
2018-06-22T12:18:54.217Z,16.89
2018-06-22T12:21:39.832Z,16.95
2018-06-22T12:24:09.736Z,17.34
2018-06-22T12:26:59.405Z,17.50
2018-06-22T12:29:28.650Z,17.71
2018-06-22T12:32:02.590Z,17.88
2018-06-22T12:34:31.879Z,17.58
2018-06-22T12:37:01.690Z,17.35
2018-06-22T12:39:31.190Z,17.15
2018-06-22T12:42:10.535Z,17.10
2018-06-22T12:44:41.366Z,17.30
2018-06-22T12:47:19.655Z,17.17
2018-06-22T12:49:56.954Z,17.23
2018-06-22T12:52:26.014Z,17.21
2018-06-22T12:54:55.139Z,17.00
2018-06-22T12:57:26.206Z,16.91
2018-06-22T12:59:56.639Z,16.80
2018-06-22T13:02:33.725Z,16.73
2018-06-22T13:05:05.435Z,16.64
2018-06-22T13:07:35.633Z,16.71
2018-06-22T13:10:04.869Z,16.67
2018-06-22T13:12:35.331Z,16.50
2018-06-22T13:15:04.925Z,16.52
2018-06-22T13:17:46.823Z,16.62
2018-06-22T13:20:17.817Z,16.77
2018-06-22T13:22:52.968Z,16.81
2018-06-22T13:25:24.136Z,16.83
2018-06-22T13:27:53.306Z,16.68
2018-06-22T13:30:22.439Z,16.71
2018-06-22T13:32:51.575Z,17.06
2018-06-22T13:35:21.565Z,17.26
2018-06-22T13:37:51.767Z,17.47
2018-06-22T13:40:23.733Z,17.61
2018-06-22T13:42:55.701Z,17.67
2018-06-22T13:45:43.142Z,17.71
2018-06-22T13:48:14.307Z,17.59
2018-06-22T13:51:03.262Z,17.41
2018-06-22T13:53:34.279Z,17.65
2018-06-22T13:56:05.700Z,17.71
2018-06-22T14:01:16.002Z,17.69
2018-06-22T14:03:58.446Z,17.74
2018-06-22T14:06:33.754Z,17.63
2018-06-22T14:09:04.490Z,17.66
2018-06-22T14:11:43.539Z,17.44
2018-06-22T14:16:53.240Z,17.03
2018-06-22T14:19:23.516Z,16.90
2018-06-22T14:22:01.534Z,16.90
2018-06-22T14:24:31.351Z,16.67
2018-06-22T14:27:01.979Z,16.31
2018-06-22T14:29:33.393Z,15.98
2018-06-22T14:32:02.867Z,15.41
2018-06-22T14:34:32.450Z,15.29
2018-06-22T14:37:02.756Z,15.30
2018-06-22T14:39:34.506Z,15.54
2018-06-22T14:42:13.293Z,15.64
2018-06-22T14:44:43.336Z,15.64
2018-06-22T14:47:20.244Z,15.96
2018-06-22T14:49:50.429Z,16.02
2018-06-22T14:52:20.873Z,15.93
2018-06-22T14:54:55.203Z,15.91
2018-06-22T14:57:29.332Z,15.92
2018-06-22T15:00:04.150Z,15.76
2018-06-22T15:02:38.331Z,15.58
2018-06-22T15:05:14.787Z,15.58
2018-06-22T15:07:48.860Z,15.41
2018-06-22T15:10:18.058Z,15.34
2018-06-22T15:12:48.182Z,15.52
2018-06-22T15:15:23.802Z,16.04
2018-06-22T15:17:54.356Z,15.88
2018-06-22T15:20:24.559Z,16.11
2018-06-22T15:22:53.598Z,16.43
2018-06-22T15:25:23.404Z,16.84
2018-06-22T15:27:54.806Z,16.97
2018-06-22T15:30:24.080Z,16.91
2018-06-22T15:32:53.178Z,16.94
2018-06-22T15:37:34.596Z,16.99
2018-06-22T15:40:15.980Z,16.93
2018-06-22T15:42:50.075Z,16.77
2018-06-22T15:45:24.160Z,16.49
2018-06-22T15:48:02.097Z,16.40
2018-06-22T15:50:36.221Z,16.24
2018-06-22T15:53:10.605Z,16.14
2018-06-22T15:55:45.019Z,15.96
2018-06-22T15:58:15.365Z,15.76
2018-06-22T16:00:44.437Z,15.53
2018-06-22T16:03:18.763Z,15.50
2018-06-22T16:05:47.921Z,15.65
2018-06-22T16:08:21.244Z,15.50
2018-06-22T16:10:52.289Z,15.44
2018-06-22T16:13:23.555Z,15.38
2018-06-22T16:15:58.446Z,15.62
2018-06-22T16:18:35.107Z,15.72
2018-06-22T16:21:10.310Z,15.55
2018-06-22T16:23:44.318Z,15.53
2018-06-22T16:26:18.404Z,15.39
2018-06-22T16:28:48.174Z,15.52
2018-06-22T16:31:17.332Z,15.65
2018-06-22T16:33:56.240Z,15.47
2018-06-22T16:36:26.348Z,15.29
2018-06-22T16:38:57.747Z,15.05
2018-06-22T16:41:26.858Z,15.20
2018-06-22T16:43:56.729Z,14.99
2018-06-22T16:46:27.231Z,14.86
2018-06-22T16:48:59.251Z,14.82
2018-06-22T16:51:30.830Z,14.94
2018-06-22T16:54:01.398Z,14.74
2018-06-22T16:56:30.301Z,14.42
2018-06-22T16:59:04.273Z,14.50
2018-06-22T17:01:39.576Z,14.58
2018-06-22T17:04:15.649Z,14.60
2018-06-22T17:06:50.892Z,14.57
2018-06-22T17:09:25.431Z,14.55
2018-06-22T17:12:05.871Z,14.50
2018-06-22T17:14:40.043Z,14.59
2018-06-22T17:17:15.664Z,14.75
2018-06-22T17:19:46.453Z,14.71
2018-06-22T17:22:15.289Z,14.68
2018-06-22T17:24:50.906Z,14.36
2018-06-22T17:27:29.605Z,14.23
2018-06-22T17:30:01.489Z,14.28
2018-06-22T17:32:32.112Z,14.07
2018-06-22T17:35:05.299Z,14.35
2018-06-22T17:37:41.395Z,14.12
2018-06-22T17:40:31.485Z,13.76
2018-06-22T17:45:49.980Z,13.73
2018-06-22T17:48:23.448Z,13.73
2018-06-22T17:50:56.720Z,13.66
2018-06-22T17:53:33.014Z,13.68
2018-06-22T17:56:27.205Z,13.64
2018-06-22T17:59:03.295Z,13.52
2018-06-22T18:01:37.801Z,13.42
2018-06-22T18:04:17.098Z,13.46
2018-06-22T20:07:00.588Z,11.93
